Time;durP1;ratioP1;P1;durP2;ratioP2;P2;SDS_P1;SDS_P2;PMS_P1;PMS_P2;Temp;Humidity;BMP_temperature;BMP_pressure;BME280_temperature;BME280_humidity;BME280_pressure;Samples;Min_cycle;Max_cycle;Signal;HPM_P1;HPM_P2
2022/09/15 00:00:15;;;;;;;2.67;2.47;;;20.50;99.90;;;;;;5011606;28;20266;-82
2022/09/15 00:02:44;;;;;;;2.50;2.30;;;20.10;99.90;;;;;;5009689;28;20651;-81
2022/09/15 00:05:10;;;;;;;2.85;2.60;;;20.40;99.90;;;;;;5009184;28;20199;-82
2022/09/15 00:07:36;;;;;;;4.97;2.40;;;20.30;99.90;;;;;;5011779;28;20224;-82
2022/09/15 00:10:04;;;;;;;2.50;2.10;;;20.50;99.90;;;;;;5010365;28;20183;-82
2022/09/15 00:12:29;;;;;;;2.65;2.38;;;19.80;99.90;;;;;;5011333;28;20201;-82
2022/09/15 00:14:55;;;;;;;3.03;2.50;;;20.50;99.90;;;;;;5003833;28;20658;-82
2022/09/15 00:17:21;;;;;;;4.87;2.53;;;20.10;99.90;;;;;;5010808;28;20198;-82
2022/09/15 00:19:46;;;;;;;3.80;2.23;;;20.30;99.90;;;;;;4989266;28;20529;-82
2022/09/15 00:22:12;;;;;;;3.83;3.10;;;20.50;99.90;;;;;;5008137;28;20218;-82
2022/09/15 00:24:38;;;;;;;3.13;2.83;;;20.40;99.90;;;;;;5009204;28;20241;-82
2022/09/15 00:27:03;;;;;;;12.00;3.77;;;20.10;99.90;;;;;;5007566;28;20199;-82
2022/09/15 00:29:29;;;;;;;2.93;2.60;;;20.30;99.90;;;;;;5008132;28;21286;-82
2022/09/15 00:31:55;;;;;;;3.00;2.50;;;20.40;99.90;;;;;;5009338;28;20199;-81
2022/09/15 00:34:20;;;;;;;2.50;2.30;;;20.30;99.90;;;;;;4995945;28;20609;-83
2022/09/15 00:36:46;;;;;;;3.50;3.00;;;20.10;99.90;;;;;;5007303;28;21834;-82
2022/09/15 00:39:11;;;;;;;2.40;2.20;;;20.80;99.90;;;;;;5010677;28;20606;-82
2022/09/15 00:41:38;;;;;;;3.00;1.87;;;20.30;99.90;;;;;;5011134;28;20711;-82
2022/09/15 00:44:15;;;;;;;3.20;1.55;;;20.50;99.90;;;;;;5006911;28;20171;-82
2022/09/15 00:46:44;;;;;;;2.25;1.80;;;20.20;99.90;;;;;;5007467;28;20191;-82
2022/09/15 00:49:20;;;;;;;1.55;1.45;;;20.50;99.90;;;;;;5008943;28;20193;-82
2022/09/15 00:52:00;;;;;;;1.65;1.55;;;20.20;99.90;;;;;;5009957;28;20217;-82
2022/09/15 00:54:42;;;;;;;2.55;1.60;;;20.40;99.90;;;;;;5007830;28;20958;-82
2022/09/15 00:57:14;;;;;;;1.92;1.83;;;20.20;99.90;;;;;;5007921;28;20203;-82
2022/09/15 00:59:41;;;;;;;2.55;2.00;;;20.10;99.90;;;;;;5007480;28;20218;-81
2022/09/15 01:02:27;;;;;;;2.65;1.85;;;20.30;99.90;;;;;;5008996;28;20175;-82
2022/09/15 01:04:54;;;;;;;1.73;1.50;;;20.10;99.90;;;;;;5007446;28;20210;-82
2022/09/15 01:07:31;;;;;;;3.63;1.55;;;20.10;99.90;;;;;;5007298;28;20449;-82
2022/09/15 01:10:03;;;;;;;1.60;1.50;;;20.10;99.90;;;;;;5010226;28;20198;-82
2022/09/15 01:12:29;;;;;;;1.70;1.60;;;20.10;99.90;;;;;;5006842;28;20202;-82
2022/09/15 01:14:54;;;;;;;4.17;1.87;;;20.60;99.90;;;;;;5010519;28;20597;-82
2022/09/15 01:17:38;;;;;;;1.77;1.67;;;20.60;99.90;;;;;;5005335;28;20503;-82
2022/09/15 01:20:25;;;;;;;1.60;1.50;;;20.10;99.90;;;;;;5005405;28;20210;-81
2022/09/15 01:23:18;;;;;;;2.88;1.92;;;20.50;99.90;;;;;;4992885;28;20241;-82
2022/09/15 01:26:14;;;;;;;1.75;1.65;;;19.90;99.90;;;;;;5006251;28;20237;-82
2022/09/15 01:28:58;;;;;;;2.05;1.92;;;19.90;99.90;;;;;;4994966;28;20199;-81
2022/09/15 01:33:02;;;;;;;2.25;1.63;;;19.80;99.90;;;;;;5002553;28;20189;-82
2022/09/15 01:34:35;;;;;;;3.83;2.05;;;19.80;99.90;;;;;;5004928;28;20191;-82
2022/09/15 01:37:09;;;;;;;3.45;1.70;;;20.20;99.90;;;;;;5005046;28;20199;-82
2022/09/15 01:39:40;;;;;;;1.65;1.55;;;20.40;99.90;;;;;;5009152;28;20190;-82
2022/09/15 01:42:09;;;;;;;2.47;1.92;;;19.70;99.90;;;;;;5006818;28;20794;-82
2022/09/15 01:44:46;;;;;;;2.28;1.60;;;19.70;99.90;;;;;;5010660;28;20243;-81
2022/09/15 01:47:14;;;;;;;1.90;1.70;;;19.70;99.90;;;;;;5000923;28;20694;-82
2022/09/15 01:49:55;;;;;;;2.80;1.60;;;19.90;99.90;;;;;;5012977;28;20281;-82
2022/09/15 01:52:23;;;;;;;1.55;1.40;;;19.70;99.90;;;;;;5007537;28;20170;-82
2022/09/15 01:54:56;;;;;;;2.33;2.13;;;19.90;99.90;;;;;;5007521;28;20721;-82
2022/09/15 01:57:22;;;;;;;2.30;2.10;;;19.50;99.90;;;;;;5005784;28;20745;-81
2022/09/15 01:59:53;;;;;;;2.07;1.93;;;20.00;99.90;;;;;;5001027;28;20184;-81
2022/09/15 02:02:56;;;;;;;2.55;1.90;;;20.10;99.90;;;;;;5005807;28;20465;-82
2022/09/15 02:05:37;;;;;;;3.60;1.70;;;19.60;99.90;;;;;;4935216;29;20272;-81
2022/09/15 02:08:27;;;;;;;2.00;1.60;;;19.70;99.90;;;;;;4992271;28;20217;-82
2022/09/15 02:11:01;;;;;;;3.15;1.60;;;19.90;99.90;;;;;;5008133;28;20274;-82
2022/09/15 02:13:50;;;;;;;1.50;1.40;;;19.60;99.90;;;;;;5008831;28;20190;-82
2022/09/15 02:16:22;;;;;;;1.48;1.38;;;19.50;99.90;;;;;;4998238;28;20194;-82
2022/09/15 02:19:10;;;;;;;1.60;1.30;;;19.60;99.90;;;;;;4989777;28;20214;-82
2022/09/15 02:21:52;;;;;;;2.45;1.10;;;20.10;99.90;;;;;;5003587;28;20187;-81
2022/09/15 02:24:25;;;;;;;2.85;1.60;;;19.50;99.90;;;;;;5006716;28;20201;-82
2022/09/15 02:26:53;;;;;;;1.50;1.40;;;19.60;99.90;;;;;;5008877;28;20203;-82
2022/09/15 02:29:22;;;;;;;1.50;1.40;;;20.00;99.90;;;;;;5009258;28;20175;-81
2022/09/15 02:31:51;;;;;;;1.58;1.48;;;20.10;99.90;;;;;;5009713;28;20186;-81
2022/09/15 02:34:29;;;;;;;1.77;1.35;;;20.00;99.90;;;;;;5007647;28;20291;-82
2022/09/15 02:36:56;;;;;;;1.88;1.77;;;19.90;99.90;;;;;;5007821;28;20203;-82
2022/09/15 02:39:28;;;;;;;4.30;3.00;;;19.90;99.90;;;;;;5008006;28;20218;-82
2022/09/15 02:41:53;;;;;;;2.65;1.50;;;20.00;99.90;;;;;;5005214;28;20242;-81
2022/09/15 02:44:19;;;;;;;2.00;1.43;;;19.90;99.90;;;;;;5000487;28;20566;-82
2022/09/15 02:46:45;;;;;;;1.40;1.30;;;19.60;99.90;;;;;;5008497;28;20205;-81
2022/09/15 02:49:10;;;;;;;2.83;1.80;;;19.50;99.90;;;;;;5008749;28;20674;-81
2022/09/15 02:51:36;;;;;;;2.30;1.53;;;20.00;99.90;;;;;;5009618;28;20190;-81
2022/09/15 02:54:01;;;;;;;1.87;1.70;;;19.60;99.90;;;;;;5009328;28;20187;-83
2022/09/15 02:56:27;;;;;;;3.43;1.70;;;;;;;;;;5006727;28;20179;-82
2022/09/15 02:58:53;;;;;;;3.90;1.80;;;19.60;99.90;;;;;;5009188;28;20781;-81
2022/09/15 03:01:18;;;;;;;2.00;1.37;;;19.70;99.90;;;;;;5004761;28;20460;-81
2022/09/15 03:03:45;;;;;;;1.40;1.30;;;19.60;99.90;;;;;;4994456;28;20205;-81
2022/09/15 03:06:19;;;;;;;1.50;1.40;;;20.10;99.90;;;;;;5007828;28;20230;-82
2022/09/15 03:08:54;;;;;;;1.40;1.30;;;20.00;99.90;;;;;;5008718;28;20229;-81
2022/09/15 03:11:22;;;;;;;2.05;1.48;;;19.90;99.90;;;;;;5008377;28;20179;-81
2022/09/15 03:13:51;;;;;;;1.90;1.50;;;19.60;99.90;;;;;;5011551;28;20210;-81
2022/09/15 03:16:17;;;;;;;2.00;1.67;;;20.00;99.90;;;;;;5012137;28;20274;-81
2022/09/15 03:18:42;;;;;;;1.30;1.20;;;19.70;99.90;;;;;;5011188;28;20294;-81
2022/09/15 03:21:12;;;;;;;2.70;1.50;;;20.00;99.90;;;;;;5010551;28;20190;-82
2022/09/15 03:23:38;;;;;;;1.40;1.30;;;19.50;99.90;;;;;;5010234;28;20558;-81
2022/09/15 03:26:04;;;;;;;1.83;1.50;;;19.80;99.90;;;;;;4995822;28;20199;-82
2022/09/15 03:28:30;;;;;;;1.60;1.45;;;19.60;99.90;;;;;;5012613;28;20688;-82
2022/09/15 03:30:56;;;;;;;1.70;1.60;;;19.80;99.90;;;;;;5013001;28;20183;-81
2022/09/15 03:33:23;;;;;;;3.70;2.03;;;19.90;99.90;;;;;;5009013;28;20188;-81
2022/09/15 03:35:50;;;;;;;1.30;1.20;;;19.70;99.90;;;;;;5007391;28;20241;-82
2022/09/15 03:38:16;;;;;;;1.70;1.60;;;20.50;99.90;;;;;;5007998;28;20249;-82
2022/09/15 03:40:42;;;;;;;2.00;1.40;;;19.70;99.90;;;;;;5009704;28;20191;-81
2022/09/15 03:43:11;;;;;;;1.35;1.25;;;19.50;99.90;;;;;;4997287;28;20438;-82
2022/09/15 03:45:37;;;;;;;2.95;1.73;;;19.80;99.90;;;;;;5007287;28;20233;-82
2022/09/15 03:48:04;;;;;;;1.45;1.20;;;19.70;99.90;;;;;;5004587;28;20230;-82
2022/09/15 03:50:31;;;;;;;2.85;1.50;;;19.70;99.90;;;;;;5007888;28;20195;-81
2022/09/15 03:53:01;;;;;;;1.80;1.50;;;19.30;99.90;;;;;;5004918;28;20714;-82
2022/09/15 03:55:27;;;;;;;2.15;1.60;;;19.30;99.90;;;;;;5008167;28;20203;-81
2022/09/15 03:57:53;;;;;;;2.53;1.40;;;19.80;99.90;;;;;;5005088;28;20261;-82
2022/09/15 04:00:19;;;;;;;2.20;1.63;;;19.30;99.90;;;;;;5008443;28;20859;-82
2022/09/15 04:02:44;;;;;;;1.40;1.30;;;19.70;99.90;;;;;;5008364;28;20537;-81
2022/09/15 04:05:12;;;;;;;2.00;1.33;;;19.60;99.90;;;;;;5004987;28;20282;-82
2022/09/15 04:07:39;;;;;;;2.65;1.60;;;19.40;99.90;;;;;;4994220;28;20203;-82
2022/09/15 04:10:05;;;;;;;1.90;1.70;;;19.60;99.90;;;;;;4987671;28;20274;-82
2022/09/15 04:12:31;;;;;;;2.22;1.73;;;19.10;99.90;;;;;;4986090;28;20296;-82
2022/09/15 04:14:57;;;;;;;1.60;1.50;;;19.00;99.90;;;;;;5006451;28;20269;-82
2022/09/15 04:17:22;;;;;;;1.50;1.20;;;19.50;99.90;;;;;;5008489;28;20762;-81
2022/09/15 04:19:48;;;;;;;1.53;1.30;;;20.00;99.90;;;;;;4991980;28;20179;-82
2022/09/15 04:22:14;;;;;;;1.40;1.30;;;19.80;99.90;;;;;;5008631;28;20191;-82
2022/09/15 04:24:40;;;;;;;1.50;1.40;;;19.80;99.90;;;;;;5007602;28;20250;-82
2022/09/15 04:27:05;;;;;;;1.97;1.30;;;19.30;99.90;;;;;;5003964;28;20458;-81
2022/09/15 04:29:31;;;;;;;1.47;1.37;;;19.30;99.90;;;;;;5005452;28;20271;-82
2022/09/15 04:31:57;;;;;;;2.60;1.30;;;19.40;99.90;;;;;;5005912;28;20730;-81
2022/09/15 04:34:23;;;;;;;2.80;1.80;;;19.30;99.90;;;;;;4986241;28;20802;-82
2022/09/15 04:36:48;;;;;;;2.25;1.70;;;19.10;99.90;;;;;;5009142;28;20573;-82
2022/09/15 04:39:14;;;;;;;1.20;1.13;;;20.00;99.90;;;;;;4993970;28;20210;-81
2022/09/15 04:41:40;;;;;;;3.20;1.60;;;19.20;99.90;;;;;;5009607;28;20187;-81
2022/09/15 04:44:05;;;;;;;4.27;1.80;;;19.30;99.90;;;;;;5000708;28;20670;-81
2022/09/15 04:46:31;;;;;;;1.93;1.37;;;20.30;99.90;;;;;;5003271;28;20262;-80
2022/09/15 04:48:56;;;;;;;1.50;1.40;;;20.40;99.90;;;;;;5003030;28;20261;-81
2022/09/15 04:51:23;;;;;;;1.73;1.40;;;19.30;99.90;;;;;;5010904;28;20682;-81
2022/09/15 04:53:49;;;;;;;2.90;1.77;;;19.10;99.90;;;;;;4999870;28;20694;-82
2022/09/15 04:56:20;;;;;;;2.63;1.38;;;19.30;99.90;;;;;;5008936;28;20196;-81
2022/09/15 04:58:48;;;;;;;2.10;1.45;;;19.70;99.90;;;;;;4989076;28;20218;-82
2022/09/15 05:01:17;;;;;;;1.98;1.48;;;19.30;99.90;;;;;;5009640;28;20218;-83
2022/09/15 05:03:45;;;;;;;1.73;1.60;;;18.90;99.90;;;;;;5007052;28;20191;-82
2022/09/15 05:06:13;;;;;;;4.13;1.48;;;18.90;99.90;;;;;;5007261;28;20218;-82
2022/09/15 05:08:39;;;;;;;3.05;1.50;;;19.20;99.90;;;;;;5006300;28;20214;-83
2022/09/15 05:11:08;;;;;;;1.65;1.55;;;19.40;99.90;;;;;;5009851;28;20215;-83
2022/09/15 05:13:34;;;;;;;2.00;1.60;;;18.80;99.90;;;;;;5008862;28;20187;-82
2022/09/15 05:16:17;;;;;;;2.10;1.38;;;19.20;99.90;;;;;;5003901;28;20186;-82
2022/09/15 05:18:44;;;;;;;2.40;1.40;;;19.10;99.90;;;;;;5003219;28;20215;-82
2022/09/15 05:21:12;;;;;;;1.50;1.40;;;19.00;99.90;;;;;;4992705;28;20187;-82
2022/09/15 05:23:38;;;;;;;1.67;1.55;;;20.70;99.90;;;;;;5009643;28;20203;-82
2022/09/15 05:26:06;;;;;;;1.98;1.30;;;19.40;99.90;;;;;;5000217;28;20203;-82
2022/09/15 05:28:35;;;;;;;1.38;1.27;;;19.10;99.90;;;;;;5001781;28;20314;-82
2022/09/15 05:31:05;;;;;;;1.50;1.30;;;19.30;99.90;;;;;;4994821;28;20194;-82
2022/09/15 05:33:31;;;;;;;4.07;1.90;;;19.40;99.90;;;;;;5005303;28;20210;-82
2022/09/15 05:35:58;;;;;;;1.40;1.07;;;19.40;99.90;;;;;;5008944;28;20191;-81
2022/09/15 05:38:25;;;;;;;1.40;1.30;;;19.20;99.90;;;;;;5006624;28;20261;-82
2022/09/15 05:40:50;;;;;;;1.15;1.02;;;19.70;99.90;;;;;;5007970;28;20193;-82
2022/09/15 05:43:17;;;;;;;1.73;1.20;;;19.40;99.90;;;;;;5010434;28;20183;-82
2022/09/15 05:45:43;;;;;;;1.67;1.40;;;19.50;99.90;;;;;;5009819;28;20333;-81
2022/09/15 05:48:10;;;;;;;1.90;1.30;;;19.40;99.90;;;;;;4994469;28;20289;-81
2022/09/15 05:50:36;;;;;;;1.95;1.23;;;19.70;99.90;;;;;;4973521;28;20471;-82
2022/09/15 05:53:01;;;;;;;2.45;1.67;;;18.80;99.90;;;;;;4985419;28;20192;-83
2022/09/15 05:55:27;;;;;;;3.40;2.07;;;19.70;99.90;;;;;;5005654;28;20561;-83
2022/09/15 05:57:54;;;;;;;1.50;1.38;;;19.70;99.90;;;;;;4990449;28;20202;-83
2022/09/15 06:00:19;;;;;;;2.60;1.30;;;19.40;99.90;;;;;;4998506;28;20193;-83
2022/09/15 06:02:45;;;;;;;1.60;1.40;;;19.60;99.90;;;;;;5008720;28;20191;-82
2022/09/15 06:05:12;;;;;;;2.05;1.42;;;19.60;99.90;;;;;;5007519;28;20226;-83
2022/09/15 06:07:38;;;;;;;3.57;1.40;;;19.80;99.90;;;;;;4999769;28;20290;-83
2022/09/15 06:10:04;;;;;;;1.80;1.27;;;19.90;99.90;;;;;;5005815;28;20449;-83
2022/09/15 06:12:29;;;;;;;1.58;1.48;;;19.40;99.90;;;;;;4999048;28;20638;-83
2022/09/15 06:14:55;;;;;;;2.07;1.40;;;19.70;99.90;;;;;;5007391;28;20741;-83
2022/09/15 06:17:22;;;;;;;1.87;1.50;;;19.70;99.90;;;;;;5008542;28;20285;-83
2022/09/15 06:19:47;;;;;;;2.03;1.50;;;19.90;99.90;;;;;;5010631;28;20218;-83
2022/09/15 06:22:13;;;;;;;1.60;1.30;;;20.10;99.90;;;;;;5006029;28;20261;-83
2022/09/15 06:24:39;;;;;;;2.30;1.47;;;19.90;99.90;;;;;;5008117;28;20260;-83
2022/09/15 06:27:04;;;;;;;2.50;1.90;;;20.10;99.90;;;;;;4995901;28;20469;-82
2022/09/15 06:29:31;;;;;;;2.00;1.40;;;20.30;99.90;;;;;;5009106;28;20187;-84
2022/09/15 06:32:01;;;;;;;1.13;0.98;;;20.00;99.90;;;;;;5003111;28;20764;-81
2022/09/15 06:34:28;;;;;;;2.17;1.58;;;20.20;99.90;;;;;;5008379;28;20260;-83
2022/09/15 06:36:53;;;;;;;2.10;1.90;;;20.20;99.90;;;;;;5004736;28;20627;-82
2022/09/15 06:39:19;;;;;;;2.23;1.50;;;19.80;99.90;;;;;;5008632;28;20195;-83
2022/09/15 06:41:44;;;;;;;2.20;2.00;;;20.10;99.90;;;;;;5013632;28;20187;-83
2022/09/15 06:44:10;;;;;;;1.30;1.20;;;20.30;99.90;;;;;;5010226;28;20190;-83
2022/09/15 06:46:35;;;;;;;1.40;1.10;;;20.10;99.90;;;;;;5005152;28;20203;-83
2022/09/15 06:49:01;;;;;;;1.70;1.43;;;20.20;99.90;;;;;;5009948;28;20242;-80
2022/09/15 06:51:30;;;;;;;2.07;1.53;;;19.60;99.90;;;;;;5004948;28;20321;-81
2022/09/15 06:53:56;;;;;;;1.95;1.20;;;19.90;99.90;;;;;;5013541;28;20233;-81
2022/09/15 06:56:22;;;;;;;2.80;1.70;;;19.90;99.90;;;;;;5007590;28;20282;-82
2022/09/15 06:58:48;;;;;;;2.03;1.40;;;19.40;99.90;;;;;;5007890;28;20568;-81
2022/09/15 07:01:24;;;;;;;3.20;1.30;;;19.50;99.90;;;;;;5001425;28;20633;-81
2022/09/15 07:03:50;;;;;;;1.85;1.63;;;19.50;99.90;;;;;;5011290;28;20279;-82
2022/09/15 07:06:16;;;;;;;1.30;1.20;;;19.50;99.90;;;;;;5008120;28;20231;-81
2022/09/15 07:08:42;;;;;;;1.85;1.40;;;19.20;99.90;;;;;;5012834;28;20468;-81
2022/09/15 07:11:09;;;;;;;1.50;1.40;;;19.20;99.90;;;;;;5005522;28;20518;-81
2022/09/15 07:13:35;;;;;;;4.10;1.50;;;19.10;99.90;;;;;;5008662;28;20247;-82
2022/09/15 07:16:02;;;;;;;1.60;1.50;;;18.70;99.90;;;;;;5006071;28;20651;-81
2022/09/15 07:18:29;;;;;;;2.58;1.50;;;19.20;99.90;;;;;;4993608;28;20203;-81
2022/09/15 07:21:00;;;;;;;3.65;1.83;;;19.10;99.90;;;;;;4996140;28;20271;-81
2022/09/15 07:23:25;;;;;;;4.18;3.78;;;19.40;99.90;;;;;;5010178;28;20195;-81
2022/09/15 07:25:51;;;;;;;1.50;1.20;;;19.30;99.90;;;;;;5010135;28;20663;-82
2022/09/15 07:28:17;;;;;;;1.67;1.27;;;18.70;99.90;;;;;;5008264;28;20361;-81
2022/09/15 07:30:42;;;;;;;1.20;1.10;;;19.00;99.90;;;;;;4994640;28;20197;-81
2022/09/15 07:33:11;;;;;;;1.80;1.07;;;19.10;99.90;;;;;;4994019;28;20179;-80
2022/09/15 07:35:41;;;;;;;5.07;3.65;;;19.20;99.90;;;;;;5000560;28;20508;-81
2022/09/15 07:38:07;;;;;;;2.17;1.95;;;19.40;99.90;;;;;;5000475;28;20293;-81
2022/09/15 07:40:33;;;;;;;1.20;1.10;;;19.10;99.90;;;;;;4991225;28;20290;-81
2022/09/15 07:42:59;;;;;;;1.70;1.20;;;19.40;99.90;;;;;;5010491;28;20850;-81
2022/09/15 07:45:24;;;;;;;1.97;1.40;;;19.00;99.90;;;;;;5010807;28;20206;-82
2022/09/15 07:47:50;;;;;;;3.10;1.23;;;19.10;99.90;;;;;;5010638;28;20493;-81
2022/09/15 07:50:16;;;;;;;1.97;1.23;;;19.20;99.90;;;;;;4999202;28;20439;-82
2022/09/15 07:52:41;;;;;;;1.53;1.20;;;18.90;99.90;;;;;;5001270;28;20179;-81
2022/09/15 07:55:08;;;;;;;1.93;1.37;;;19.20;99.90;;;;;;5014274;28;20214;-82
2022/09/15 07:57:34;;;;;;;1.00;0.90;;;18.90;99.90;;;;;;4995210;28;20704;-81
2022/09/15 07:59:59;;;;;;;2.70;1.50;;;19.30;99.90;;;;;;5011758;28;20265;-82
2022/09/15 08:02:25;;;;;;;3.17;1.37;;;19.40;99.90;;;;;;4994171;28;20670;-81
2022/09/15 08:04:51;;;;;;;1.20;1.10;;;19.20;99.90;;;;;;5005124;28;20210;-82
2022/09/15 08:07:17;;;;;;;1.13;1.02;;;19.40;99.90;;;;;;4998570;28;20543;-82
2022/09/15 08:09:43;;;;;;;2.30;1.23;;;19.30;99.90;;;;;;5001728;28;20571;-82
2022/09/15 08:12:08;;;;;;;1.03;0.90;;;18.90;99.90;;;;;;5015105;28;20643;-82
2022/09/15 08:14:34;;;;;;;1.77;1.23;;;19.00;99.90;;;;;;5011229;28;20205;-82
2022/09/15 08:17:01;;;;;;;1.47;1.00;;;19.10;99.90;;;;;;4989799;28;20238;-82
2022/09/15 08:19:27;;;;;;;1.05;0.90;;;19.00;99.90;;;;;;5002265;28;20333;-82
2022/09/15 08:21:53;;;;;;;1.33;0.93;;;19.10;99.90;;;;;;5010861;28;20742;-81
2022/09/15 08:24:18;;;;;;;1.93;0.90;;;19.20;99.90;;;;;;5010479;28;21055;-81
2022/09/15 08:26:45;;;;;;;1.40;1.10;;;19.00;99.90;;;;;;5007152;28;20557;-84
2022/09/15 08:29:12;;;;;;;1.48;1.20;;;18.80;99.90;;;;;;5002175;28;20179;-82
2022/09/15 08:31:38;;;;;;;2.83;1.05;;;19.30;99.90;;;;;;5008491;28;20182;-82
2022/09/15 08:34:05;;;;;;;1.83;1.43;;;20.40;99.90;;;;;;5010003;28;20764;-82
2022/09/15 08:36:32;;;;;;;2.65;2.20;;;18.80;99.90;;;;;;5005326;28;20438;-82
2022/09/15 08:38:58;;;;;;;1.55;1.08;;;19.90;99.90;;;;;;5011273;28;20206;-82
2022/09/15 08:41:30;;;;;;;1.00;1.00;;;19.20;99.90;;;;;;5007551;28;20257;-82
2022/09/15 08:44:21;;;;;;;1.42;1.10;;;19.30;99.90;;;;;;5008567;28;20190;-82
2022/09/15 08:46:50;;;;;;;3.20;1.40;;;19.00;99.90;;;;;;5004901;28;20715;-82
2022/09/15 08:49:29;;;;;;;1.75;1.00;;;19.00;99.90;;;;;;5011038;28;20198;-82
2022/09/15 08:51:59;;;;;;;2.15;1.35;;;19.10;99.90;;;;;;5011353;28;20584;-83
2022/09/15 08:54:28;;;;;;;1.38;1.27;;;19.40;99.90;;;;;;4992059;28;20670;-83
2022/09/15 08:56:56;;;;;;;1.83;1.00;;;19.60;99.90;;;;;;5001620;28;20301;-82
2022/09/15 08:59:23;;;;;;;1.40;1.10;;;19.50;99.90;;;;;;5006640;28;20233;-82
2022/09/15 09:02:22;;;;;;;4.43;1.15;;;19.40;99.90;;;;;;5006820;28;20273;-82
2022/09/15 09:04:51;;;;;;;1.45;1.35;;;19.50;99.90;;;;;;5000073;28;20194;-82
2022/09/15 09:07:49;;;;;;;2.88;2.50;;;19.50;99.90;;;;;;5002973;28;20195;-83
2022/09/15 09:10:24;;;;;;;1.70;1.60;;;19.40;99.90;;;;;;4986545;28;20219;-82
2022/09/15 09:13:02;;;;;;;1.95;1.80;;;19.80;99.90;;;;;;5009416;28;20193;-82
2022/09/15 09:15:46;;;;;;;1.55;1.10;;;20.30;99.90;;;;;;5010539;28;20178;-82
2022/09/15 09:18:47;;;;;;;1.30;1.20;;;20.00;99.90;;;;;;5005596;28;20199;-82
2022/09/15 09:21:23;;;;;;;1.55;1.45;;;20.20;99.90;;;;;;4975333;28;20202;-82
2022/09/15 09:24:24;;;;;;;1.50;1.20;;;20.40;99.90;;;;;;5008725;28;20568;-82
2022/09/15 09:26:53;;;;;;;1.42;1.30;;;20.20;99.90;;;;;;5007529;28;20221;-82
2022/09/15 09:29:25;;;;;;;2.13;1.40;;;20.00;99.90;;;;;;5005186;28;20246;-82
2022/09/15 09:31:54;;;;;;;1.20;1.10;;;20.50;99.90;;;;;;5009500;28;20186;-82
2022/09/15 09:34:44;;;;;;;1.17;1.08;;;20.80;99.90;;;;;;5009437;28;20179;-82
2022/09/15 09:37:12;;;;;;;1.20;1.10;;;20.50;99.90;;;;;;5009499;28;20207;-82
2022/09/15 09:39:38;;;;;;;3.13;1.20;;;20.50;99.90;;;;;;4991196;28;20198;-82
2022/09/15 09:42:07;;;;;;;1.47;1.27;;;21.00;99.90;;;;;;5000978;28;20194;-82
2022/09/15 09:44:33;;;;;;;4.85;1.48;;;20.70;99.90;;;;;;5008778;28;20257;-82
2022/09/15 09:46:59;;;;;;;1.92;1.52;;;21.10;99.90;;;;;;4999524;28;20209;-82
2022/09/15 09:49:38;;;;;;;1.60;0.95;;;20.40;99.90;;;;;;4991464;28;20191;-82
2022/09/15 09:52:04;;;;;;;1.63;1.00;;;20.90;99.90;;;;;;5010370;28;20742;-82
2022/09/15 09:54:31;;;;;;;3.53;1.87;;;20.90;99.90;;;;;;5009040;28;20262;-83
2022/09/15 09:57:20;;;;;;;1.80;1.30;;;20.80;99.90;;;;;;5007431;28;20277;-82
2022/09/15 09:59:47;;;;;;;2.20;1.08;;;20.30;99.90;;;;;;4988772;28;20204;-82
2022/09/15 10:02:15;;;;;;;2.08;1.17;;;19.80;99.90;;;;;;5006338;28;20194;-82
2022/09/15 10:04:42;;;;;;;0.80;0.80;;;20.40;99.90;;;;;;5006054;28;20195;-82
2022/09/15 10:07:08;;;;;;;1.23;0.70;;;19.80;99.90;;;;;;4985699;28;20257;-81
2022/09/15 10:09:35;;;;;;;0.75;0.75;;;20.50;99.90;;;;;;4991631;28;20194;-82
2022/09/15 10:12:03;;;;;;;8.85;2.65;;;19.60;99.90;;;;;;5008887;28;20272;-83
2022/09/15 10:14:34;;;;;;;4.93;2.50;;;19.20;99.90;;;;;;4991052;28;20194;-82
2022/09/15 10:17:22;;;;;;;2.47;0.90;;;18.90;99.90;;;;;;5005138;28;20241;-82
2022/09/15 10:19:53;;;;;;;2.17;1.15;;;18.70;99.90;;;;;;5003247;28;20662;-83
2022/09/15 10:22:39;;;;;;;0.80;0.50;;;18.70;99.90;;;;;;5008732;28;20186;-82
2022/09/15 10:25:26;;;;;;;1.33;0.90;;;18.80;99.90;;;;;;4990367;28;20321;-82
2022/09/15 10:28:21;;;;;;;1.90;0.80;;;18.70;99.90;;;;;;4997308;28;20608;-82
2022/09/15 10:31:04;;;;;;;1.63;0.80;;;18.40;99.90;;;;;;5008618;28;20221;-82
2022/09/15 10:33:33;;;;;;;1.65;0.93;;;17.80;99.90;;;;;;5009421;28;20194;-82
2022/09/15 10:36:05;;;;;;;1.90;0.95;;;18.30;99.90;;;;;;5008393;28;20552;-82
2022/09/15 10:38:53;;;;;;;1.92;1.20;;;18.10;99.90;;;;;;4991902;28;20601;-82
2022/09/15 10:41:25;;;;;;;2.65;1.15;;;18.40;99.90;;;;;;5008462;28;20221;-83
2022/09/15 10:44:15;;;;;;;2.05;0.90;;;18.00;99.90;;;;;;5008413;28;20191;-82
2022/09/15 10:47:25;;;;;;;3.13;1.05;;;17.90;99.90;;;;;;4993704;28;20207;-82
2022/09/15 10:50:09;;;;;;;2.67;1.50;;;17.90;99.90;;;;;;4938136;28;20219;-82
2022/09/15 10:53:05;;;;;;;1.77;1.52;;;17.80;99.90;;;;;;5009603;28;20183;-82
2022/09/15 10:55:52;;;;;;;3.80;2.20;;;17.60;99.90;;;;;;5007936;28;20230;-83
2022/09/15 10:58:46;;;;;;;1.90;1.80;;;17.60;99.90;;;;;;5003282;28;20211;-83
2022/09/15 11:01:26;;;;;;;2.33;1.90;;;17.60;99.90;;;;;;5009174;28;20674;-82
2022/09/15 11:03:59;;;;;;;2.97;2.40;;;17.30;99.90;;;;;;5008391;28;20277;-83
2022/09/15 11:06:35;;;;;;;3.35;2.33;;;17.60;99.90;;;;;;5006402;28;20214;-82
2022/09/15 11:09:18;;;;;;;3.08;2.80;;;16.70;99.90;;;;;;4996359;28;20195;-83
2022/09/15 11:12:25;;;;;;;4.80;4.32;;;17.10;99.90;;;;;;4999952;28;20195;-83
2022/09/15 11:14:57;;;;;;;2.08;1.92;;;16.90;99.90;;;;;;4997956;28;20182;-83
2022/09/15 11:17:40;;;;;;;2.85;2.20;;;17.10;99.90;;;;;;5015355;28;20195;-83
2022/09/15 11:20:42;;;;;;;2.50;2.28;;;17.60;99.90;;;;;;5008621;28;20241;-83
2022/09/15 11:23:23;;;;;;;2.85;2.65;;;17.20;99.90;;;;;;4992530;28;20253;-82
2022/09/15 11:25:56;;;;;;;3.45;3.10;;;17.10;99.90;;;;;;5013593;28;20218;-83
2022/09/15 11:28:32;;;;;;;3.28;2.97;;;17.40;99.90;;;;;;5008685;28;20699;-83
2022/09/15 11:31:25;;;;;;;5.43;3.47;;;16.90;99.90;;;;;;5012328;28;20670;-83
2022/09/15 11:34:05;;;;;;;4.28;3.17;;;16.90;99.90;;;;;;5007559;28;20651;-82
2022/09/15 11:36:49;;;;;;;4.55;3.63;;;16.70;99.90;;;;;;5007969;28;20242;-82
2022/09/15 11:39:24;;;;;;;5.00;3.65;;;16.70;99.90;;;;;;5011659;28;20191;-82
2022/09/15 11:42:12;;;;;;;4.20;3.38;;;16.90;99.90;;;;;;5008440;28;20182;-82
2022/09/15 11:44:43;;;;;;;4.75;3.30;;;16.80;99.90;;;;;;5036722;22;20220;-90
2022/09/15 11:47:26;;;;;;;4.28;3.33;;;17.40;99.90;;;;;;5053130;28;20184;-88
2022/09/15 11:50:02;;;;;;;3.78;3.47;;;18.00;99.90;;;;;;5056977;28;20227;-90
2022/09/15 11:52:38;;;;;;;6.53;4.60;;;17.20;99.90;;;;;;5048162;28;20188;-90
2022/09/15 11:55:20;;;;;;;4.18;3.50;;;18.30;99.90;;;;;;5056771;28;20668;-90
2022/09/15 11:58:18;;;;;;;3.67;3.38;;;17.00;99.90;;;;;;5070876;28;20656;-89
2022/09/15 12:00:54;;;;;;;4.20;3.83;;;17.00;99.90;;;;;;5073585;28;20181;-90
2022/09/15 12:03:50;;;;;;;5.30;4.30;;;17.00;99.90;;;;;;5071282;28;20181;-88
2022/09/15 12:06:42;;;;;;;5.80;4.35;;;17.10;99.90;;;;;;5072877;28;20215;-90
2022/09/15 12:09:12;;;;;;;4.25;3.95;;;16.80;99.90;;;;;;5077599;28;20180;-90
2022/09/15 12:11:51;;;;;;;5.10;4.43;;;17.70;99.90;;;;;;5067358;28;20234;-89
2022/09/15 12:14:37;;;;;;;4.72;3.75;;;17.10;99.90;;;;;;5077234;28;20199;-90
2022/09/15 12:17:08;;;;;;;5.32;3.95;;;16.90;99.90;;;;;;5076370;28;20176;-90
2022/09/15 12:19:37;;;;;;;11.05;9.95;;;18.90;99.90;;;;;;5074760;28;20251;-90
2022/09/15 12:22:29;;;;;;;5.63;4.72;;;19.50;99.90;;;;;;5058699;28;20181;-88
2022/09/15 12:25:01;;;;;;;8.18;7.28;;;17.20;99.90;;;;;;5071270;28;20197;-89
2022/09/15 12:27:28;;;;;;;5.30;4.35;;;16.70;99.90;;;;;;5075717;28;20686;-88
2022/09/15 12:29:58;;;;;;;4.65;3.83;;;18.70;99.90;;;;;;5060778;28;20177;-87
2022/09/15 12:32:29;;;;;;;4.00;3.70;;;18.90;99.90;;;;;;5070676;28;20184;-87
2022/09/15 12:35:16;;;;;;;4.22;3.40;;;17.10;99.90;;;;;;5070915;28;20242;-88
2022/09/15 12:37:56;;;;;;;4.18;3.67;;;17.10;99.90;;;;;;5074858;28;20191;-89
2022/09/15 12:40:37;;;;;;;4.50;4.10;;;17.60;99.90;;;;;;5074522;28;20180;-88
2022/09/15 12:43:12;;;;;;;4.95;3.50;;;17.40;99.90;;;;;;5073884;28;20168;-88
2022/09/15 12:45:40;;;;;;;4.50;4.10;;;18.70;99.90;;;;;;5074576;28;20218;-88
2022/09/15 12:48:14;;;;;;;3.47;3.17;;;19.10;99.90;;;;;;5071339;28;20234;-89
2022/09/15 12:50:42;;;;;;;5.10;3.60;;;17.70;99.90;;;;;;5094211;28;20190;-89
2022/09/15 12:53:13;;;;;;;4.25;3.67;;;19.80;99.90;;;;;;5084036;28;20176;-89
2022/09/15 12:55:49;;;;;;;4.18;3.78;;;18.50;99.90;;;;;;5070211;28;20212;-87
2022/09/15 12:58:22;;;;;;;4.50;4.10;;;20.10;99.90;;;;;;5072501;28;20179;-89
2022/09/15 13:00:48;;;;;;;3.80;3.50;;;19.80;99.90;;;;;;5072695;28;20253;-87
2022/09/15 13:03:27;;;;;;;4.20;3.60;;;17.70;99.90;;;;;;5067576;28;20220;-88
2022/09/15 13:06:11;;;;;;;3.75;3.45;;;20.50;99.90;;;;;;5073716;28;20220;-87
2022/09/15 13:08:37;;;;;;;3.60;3.28;;;18.60;99.90;;;;;;5073915;28;20176;-86
2022/09/15 13:11:20;;;;;;;3.70;3.27;;;18.80;99.90;;;;;;5075099;28;20176;-92